Impacts METAR Board
IDs:

KCLT - Charlotte/Douglas In, NC, US

Updated at: 0300 UTC 23 Oct 2018
Potential Impact None Slight Moderate High
Time 22/15Z 22/16Z 22/17Z 22/18Z 22/19Z 22/20Z 22/21Z 22/22Z 22/23Z 23/00Z 23/01Z 23/02Z 23/03Z
Temp54 57 60 61 63 63 63 59 55 54 52 52 50
Dewpt35 35 35 35 37 36 37 40 41 42 43 43 43
Altim30.37 30.37 30.35 30.31 30.28 30.26 30.25 30.24 30.25 30.25 30.26 30.26 30.26
VIS10 10 10 10 10 10 10 10 10 10 10 10 10
CIG-- -- -- -- -- -- -- 250 250 250 250 250 230
CoverFEWFEWSCTSCTSCTSCTSCTBKNBKNBKNBKNBKNBKN
FltCatVFRVFRVFRVFRVFRVFRVFRVFRVFRVFRVFRVFRVFR
WX--------------------------
WDir1501901802402301902301902402302100190
WSpd7 7 6 7 8 6 7 7 4 3 4 0 3
WGst-- -- -- -- -- -- -- -- -- -- -- -- --
Raw hourly METARs
KCLT 221452Z 15007KT 10SM FEW250 12/02 A3037 RMK AO2 SLP286 T01220017 51011
KCLT 221552Z 19007KT 10SM FEW250 14/02 A3037 RMK AO2 SLP284 T01390017
KCLT 221652Z 18006KT 10SM SCT250 16/02 A3035 RMK AO2 SLP274 T01560017
KCLT 221752Z 24007KT 10SM FEW200 SCT250 16/02 A3031 RMK AO2 SLP264 T01610017 10172 20022 58020
KCLT 221852Z 23008KT 10SM FEW200 SCT250 17/03 A3028 RMK AO2 SLP254 T01720028
KCLT 221952Z 19006KT 10SM FEW200 SCT250 17/02 A3026 RMK AO2 SLP247 T01720022
KCLT 222052Z 23007KT 10SM FEW200 SCT250 17/03 A3025 RMK AO2 SLP244 T01720028 56019
KCLT 222152Z 19007KT 10SM SCT210 BKN250 15/04 A3024 RMK AO2 SLP242 T01500044
KCLT 222252Z 24004KT 10SM SCT150 BKN250 13/05 A3025 RMK AO2 SLP244 T01280050
KCLT 222352Z 23003KT 10SM FEW210 BKN250 12/06 A3025 RMK AO2 SLP246 T01220056 10178 20122 55000
KCLT 230052Z 21004KT 10SM FEW210 BKN250 11/06 A3026 RMK AO2 SLP245 T01110061
KCLT 230152Z 00000KT 10SM SCT220 BKN250 11/06 A3026 RMK AO2 SLP246 T01110061
KCLT 230252Z 19003KT 10SM BKN230 10/06 A3026 RMK AO2 SLP244 T01000061 50000



Page loaded:  03:43 UTC  |   08:43 PM Pacific  |   09:43 PM Mountain  |   10:43 PM Central  |   11:43 PM Eastern

 

ADVISORIES

FORECASTS

FORECASTS

OBSERVATIONS

USER TOOLS

ABOUT US